Terminal Aerodrome Forecast
Issued by NWS

Home | Current Version | Previous Version | Text Only | Print | Product List | Glossary On
Versions: 1 2 3 4 5 6 7 8 9 10 11 12 13
000
FTUS42 TJSJ 312300
TAFJSJ
TAF
TJSJ 312336Z 0100/0124 09008KT P6SM VCSH FEW025 SCT050 SCT100
     FM010300 11002KT P6SM FEW025 SCT050 SCT100
     FM011200 08011KT P6SM FEW030 SCT250
     FM011630 07012KT P6SM VCTS SCT035CB SCT050 SCT250=

USA.gov is the U.S. government's official web portal to all federal, state and local government web resources and services.